createdAt,value
2022-10-26T00:00:14.918Z,20.1
2022-10-26T00:20:14.877Z,20.1
2022-10-26T00:40:14.860Z,20.1
2022-10-26T01:00:14.812Z,20.1
2022-10-26T01:20:14.798Z,20.0
2022-10-26T01:40:14.772Z,20.0
2022-10-26T02:00:14.772Z,20.0
2022-10-26T02:20:14.716Z,20.0
2022-10-26T02:40:14.707Z,20.0
2022-10-26T03:00:14.653Z,20.0
2022-10-26T03:20:14.604Z,20.0
2022-10-26T03:40:14.629Z,20.0
2022-10-26T04:00:14.617Z,19.9
2022-10-26T04:20:14.543Z,19.9
2022-10-26T04:40:14.544Z,19.9
2022-10-26T05:00:14.565Z,19.9
2022-10-26T05:20:14.512Z,19.9
2022-10-26T05:40:14.457Z,19.9
2022-10-26T06:00:14.417Z,20.1
2022-10-26T06:20:14.388Z,20.1
2022-10-26T06:40:14.363Z,20.2
2022-10-26T07:00:14.339Z,20.3
2022-10-26T07:20:14.338Z,20.4
2022-10-26T07:40:14.332Z,20.5
2022-10-26T08:00:14.303Z,20.6
2022-10-26T08:20:14.263Z,20.4
2022-10-26T08:40:14.217Z,20.3
2022-10-26T09:00:14.247Z,20.2
2022-10-26T09:20:14.174Z,20.2
2022-10-26T09:40:14.168Z,20.2
2022-10-26T10:00:14.145Z,20.2
2022-10-26T10:20:14.108Z,20.4
2022-10-26T10:40:14.101Z,20.5
2022-10-26T11:00:14.089Z,20.5
2022-10-26T11:20:14.057Z,20.6
2022-10-26T11:40:13.996Z,20.6
2022-10-26T12:00:13.995Z,20.6
2022-10-26T12:20:13.933Z,20.6
2022-10-26T12:40:13.969Z,20.5
2022-10-26T13:00:13.915Z,20.5
2022-10-26T13:20:13.892Z,20.5
2022-10-26T13:40:13.839Z,20.5
2022-10-26T14:00:13.851Z,20.6
2022-10-26T14:20:13.814Z,20.6
2022-10-26T14:40:13.797Z,20.6
2022-10-26T15:00:13.750Z,20.6
2022-10-26T15:20:13.768Z,20.7
2022-10-26T15:40:13.820Z,20.8
2022-10-26T16:00:13.701Z,20.9
2022-10-26T16:20:13.647Z,20.7
2022-10-26T16:40:13.639Z,20.6
2022-10-26T17:00:13.618Z,20.6
2022-10-26T17:20:13.571Z,20.5
2022-10-26T17:40:13.608Z,20.4
2022-10-26T18:00:13.645Z,20.4
2022-10-26T18:20:13.640Z,20.4
2022-10-26T18:40:13.598Z,20.3
2022-10-26T19:00:13.609Z,20.3
2022-10-26T19:20:13.497Z,20.2
2022-10-26T19:40:13.401Z,20.2
2022-10-26T20:00:13.386Z,20.2
2022-10-26T20:20:13.382Z,20.2
2022-10-26T20:40:13.320Z,20.2
2022-10-26T21:00:13.297Z,20.2
2022-10-26T21:20:13.292Z,20.1
2022-10-26T21:40:13.276Z,20.1
2022-10-26T22:00:13.222Z,20.1
2022-10-26T22:20:13.233Z,20.1
2022-10-26T22:40:13.182Z,20.1
2022-10-26T23:00:13.185Z,20.0
2022-10-26T23:20:13.136Z,20.0
2022-10-26T23:40:13.084Z,20.0
